sensor_id;sensor_type;location;lat;lon;timestamp;pressure;altitude;pressure_sealevel;temperature;humidity
73103;BME280;61294;65.988;29.172;2023-05-10T00:45:42;98652.41;;;3.62;64.76
73103;BME280;61294;65.988;29.172;2023-05-10T00:55:39;98650.97;;;3.38;65.45
73103;BME280;61294;65.988;29.172;2023-05-10T00:58:36;98647.38;;;3.33;65.78
73103;BME280;61294;65.988;29.172;2023-05-10T01:01:42;98657.72;;;3.30;65.67
73103;BME280;61294;65.988;29.172;2023-05-10T01:04:40;98645.41;;;3.24;65.68
73103;BME280;61294;65.988;29.172;2023-05-10T01:08:04;98653.06;;;3.17;65.85
73103;BME280;61294;65.988;29.172;2023-05-10T01:10:39;98654.53;;;3.07;66.19
73103;BME280;61294;65.988;29.172;2023-05-10T01:13:36;98652.63;;;3.00;66.73
73103;BME280;61294;65.988;29.172;2023-05-10T01:16:37;98649.28;;;3.04;67.11
73103;BME280;61294;65.988;29.172;2023-05-10T01:38:50;98633.06;;;3.16;67.10
73103;BME280;61294;65.988;29.172;2023-05-10T01:48:22;98637.66;;;3.26;67.05
73103;BME280;61294;65.988;29.172;2023-05-10T03:02:26;98625.94;;;4.26;67.54
73103;BME280;61294;65.988;29.172;2023-05-10T03:04:52;98614.81;;;4.35;67.44
73103;BME280;61294;65.988;29.172;2023-05-10T03:07:18;98615.44;;;4.21;67.45
73103;BME280;61294;65.988;29.172;2023-05-10T03:09:47;98577.06;;;4.15;67.17
73103;BME280;61294;65.988;29.172;2023-05-10T03:12:35;98607.22;;;4.45;67.07
73103;BME280;61294;65.988;29.172;2023-05-10T03:15:16;98613.19;;;4.40;67.06
73103;BME280;61294;65.988;29.172;2023-05-10T03:17:52;98613.38;;;4.49;66.70
73103;BME280;61294;65.988;29.172;2023-05-10T03:20:31;98615.38;;;4.64;66.96
73103;BME280;61294;65.988;29.172;2023-05-10T03:23:32;98615.41;;;4.65;66.42
73103;BME280;61294;65.988;29.172;2023-05-10T03:26:00;98595.44;;;4.68;66.30
73103;BME280;61294;65.988;29.172;2023-05-10T03:28:26;98596.44;;;4.76;66.21
73103;BME280;61294;65.988;29.172;2023-05-10T03:30:56;98592.16;;;4.78;66.07
73103;BME280;61294;65.988;29.172;2023-05-10T03:33:22;98590.34;;;4.75;65.73
73103;BME280;61294;65.988;29.172;2023-05-10T03:35:48;98618.53;;;4.95;65.96
73103;BME280;61294;65.988;29.172;2023-05-10T03:38:13;98589.81;;;4.95;65.83
73103;BME280;61294;65.988;29.172;2023-05-10T03:40:39;98595.22;;;5.06;65.42
73103;BME280;61294;65.988;29.172;2023-05-10T03:43:05;98596.16;;;5.09;65.05
73103;BME280;61294;65.988;29.172;2023-05-10T03:45:31;98613.88;;;5.29;65.42
73103;BME280;61294;65.988;29.172;2023-05-10T03:47:57;98580.75;;;5.26;65.22
73103;BME280;61294;65.988;29.172;2023-05-10T03:50:24;98614.03;;;5.40;65.28
73103;BME280;61294;65.988;29.172;2023-05-10T03:52:50;98608.91;;;5.46;64.65
73103;BME280;61294;65.988;29.172;2023-05-10T03:55:16;98608.06;;;5.48;65.06
73103;BME280;61294;65.988;29.172;2023-05-10T03:57:42;98609.88;;;5.52;64.95
73103;BME280;61294;65.988;29.172;2023-05-10T04:00:08;98594.84;;;5.36;64.80
73103;BME280;61294;65.988;29.172;2023-05-10T04:02:35;98608.06;;;5.48;64.77
73103;BME280;61294;65.988;29.172;2023-05-10T04:05:01;98608.88;;;5.44;64.74
73103;BME280;61294;65.988;29.172;2023-05-10T04:07:27;98570.03;;;5.08;65.46
73103;BME280;61294;65.988;29.172;2023-05-10T04:09:53;98605.09;;;5.24;65.66
73103;BME280;61294;65.988;29.172;2023-05-10T04:12:19;98574.13;;;4.92;65.64
73103;BME280;61294;65.988;29.172;2023-05-10T04:14:45;98580.56;;;5.15;65.43
73103;BME280;61294;65.988;29.172;2023-05-10T04:17:11;98609.50;;;5.28;65.25
73103;BME280;61294;65.988;29.172;2023-05-10T04:19:36;98602.66;;;5.34;65.46
73103;BME280;61294;65.988;29.172;2023-05-10T04:22:03;98573.94;;;5.36;64.99
73103;BME280;61294;65.988;29.172;2023-05-10T04:24:28;98568.88;;;5.48;65.02
73103;BME280;61294;65.988;29.172;2023-05-10T04:26:54;98611.06;;;5.73;64.50
73103;BME280;61294;65.988;29.172;2023-05-10T04:29:20;98609.47;;;5.86;64.61
73103;BME280;61294;65.988;29.172;2023-05-10T04:31:46;98605.22;;;5.94;64.52
73103;BME280;61294;65.988;29.172;2023-05-10T04:34:12;98576.41;;;5.90;64.33
73103;BME280;61294;65.988;29.172;2023-05-10T04:36:38;98598.50;;;6.12;64.02
73103;BME280;61294;65.988;29.172;2023-05-10T04:39:04;98587.16;;;6.13;64.35
73103;BME280;61294;65.988;29.172;2023-05-10T04:41:29;98576.16;;;6.38;63.88
73103;BME280;61294;65.988;29.172;2023-05-10T04:43:55;98594.00;;;6.80;62.41
73103;BME280;61294;65.988;29.172;2023-05-10T04:46:21;98565.31;;;6.90;60.78
73103;BME280;61294;65.988;29.172;2023-05-10T04:48:47;98592.63;;;7.25;60.57
73103;BME280;61294;65.988;29.172;2023-05-10T04:51:13;98595.38;;;7.42;59.17
73103;BME280;61294;65.988;29.172;2023-05-10T04:53:39;98582.28;;;7.42;58.67
73103;BME280;61294;65.988;29.172;2023-05-10T04:56:05;98573.66;;;7.57;57.56
73103;BME280;61294;65.988;29.172;2023-05-10T04:58:31;98592.13;;;7.80;58.03
73103;BME280;61294;65.988;29.172;2023-05-10T05:00:57;98557.09;;;7.66;56.73
73103;BME280;61294;65.988;29.172;2023-05-10T05:03:23;98591.28;;;7.86;56.48
73103;BME280;61294;65.988;29.172;2023-05-10T05:05:48;98584.38;;;8.00;56.29
73103;BME280;61294;65.988;29.172;2023-05-10T05:08:14;98584.44;;;8.11;55.87
73103;BME280;61294;65.988;29.172;2023-05-10T05:10:40;98580.97;;;8.20;55.18
73103;BME280;61294;65.988;29.172;2023-05-10T05:13:06;98565.16;;;8.15;54.96
73103;BME280;61294;65.988;29.172;2023-05-10T05:15:32;98582.69;;;8.19;54.85
73103;BME280;61294;65.988;29.172;2023-05-10T05:17:58;98536.28;;;8.03;54.78
73103;BME280;61294;65.988;29.172;2023-05-10T05:20:24;98543.38;;;8.25;54.36
73103;BME280;61294;65.988;29.172;2023-05-10T05:22:50;98536.34;;;8.27;54.57
73103;BME280;61294;65.988;29.172;2023-05-10T05:25:16;98577.56;;;8.56;54.23
73103;BME280;61294;65.988;29.172;2023-05-10T05:27:41;98546.94;;;8.49;53.81
73103;BME280;61294;65.988;29.172;2023-05-10T05:30:08;98578.47;;;8.68;54.18
73103;BME280;61294;65.988;29.172;2023-05-10T05:32:34;98572.38;;;8.78;53.82
73103;BME280;61294;65.988;29.172;2023-05-10T05:34:59;98578.50;;;8.83;53.11
73103;BME280;61294;65.988;29.172;2023-05-10T05:37:25;98542.59;;;8.73;52.57
73103;BME280;61294;65.988;29.172;2023-05-10T05:39:52;98553.13;;;8.88;52.00
73103;BME280;61294;65.988;29.172;2023-05-10T05:42:17;98544.38;;;9.00;51.61
73103;BME280;61294;65.988;29.172;2023-05-10T05:44:44;98551.38;;;9.06;51.16
73103;BME280;61294;65.988;29.172;2023-05-10T05:47:10;98572.38;;;9.26;51.00
73103;BME280;61294;65.988;29.172;2023-05-10T05:49:36;98534.72;;;9.18;51.60
73103;BME280;61294;65.988;29.172;2023-05-10T05:52:03;98575.00;;;9.38;50.15
73103;BME280;61294;65.988;29.172;2023-05-10T05:54:30;98575.88;;;9.42;49.43
73103;BME280;61294;65.988;29.172;2023-05-10T05:56:57;98562.75;;;9.34;49.89
73103;BME280;61294;65.988;29.172;2023-05-10T05:59:24;98581.13;;;9.49;49.13
73103;BME280;61294;65.988;29.172;2023-05-10T06:01:50;98555.72;;;9.44;49.21
73103;BME280;61294;65.988;29.172;2023-05-10T06:04:16;98563.56;;;9.55;49.41
73103;BME280;61294;65.988;29.172;2023-05-10T06:06:42;98558.31;;;9.62;48.84
73103;BME280;61294;65.988;29.172;2023-05-10T06:09:09;98579.34;;;9.76;49.14
73103;BME280;61294;65.988;29.172;2023-05-10T06:11:35;98577.53;;;9.84;48.72
73103;BME280;61294;65.988;29.172;2023-05-10T06:14:01;98559.19;;;9.69;48.71
73103;BME280;61294;65.988;29.172;2023-05-10T06:16:30;98539.00;;;9.62;47.72
73103;BME280;61294;65.988;29.172;2023-05-10T06:18:56;98562.66;;;9.82;47.81
73103;BME280;61294;65.988;29.172;2023-05-10T06:21:21;98570.47;;;9.96;48.48
73103;BME280;61294;65.988;29.172;2023-05-10T06:23:47;98554.69;;;9.94;48.42
73103;BME280;61294;65.988;29.172;2023-05-10T06:26:13;98568.69;;;10.07;47.72
73103;BME280;61294;65.988;29.172;2023-05-10T06:28:39;98566.03;;;10.10;47.37
73103;BME280;61294;65.988;29.172;2023-05-10T06:31:06;98564.28;;;10.14;46.73
73103;BME280;61294;65.988;29.172;2023-05-10T06:33:32;98538.88;;;10.07;46.82
73103;BME280;61294;65.988;29.172;2023-05-10T06:35:58;98564.19;;;10.32;47.28
73103;BME280;61294;65.988;29.172;2023-05-10T06:38:25;98568.53;;;10.47;47.09
73103;BME280;61294;65.988;29.172;2023-05-10T06:40:51;98531.72;;;10.40;46.23
73103;BME280;61294;65.988;29.172;2023-05-10T06:43:17;98549.25;;;10.45;46.34
73103;BME280;61294;65.988;29.172;2023-05-10T06:45:43;98535.16;;;10.49;45.70
73103;BME280;61294;65.988;29.172;2023-05-10T06:48:09;98549.97;;;10.69;45.64
73103;BME280;61294;65.988;29.172;2023-05-10T06:50:35;98563.09;;;10.75;45.23
73103;BME280;61294;65.988;29.172;2023-05-10T06:53:01;98534.22;;;10.61;45.23
73103;BME280;61294;65.988;29.172;2023-05-10T06:55:30;98517.56;;;10.53;45.11
73103;BME280;61294;65.988;29.172;2023-05-10T06:57:55;98549.03;;;10.79;45.40
73103;BME280;61294;65.988;29.172;2023-05-10T07:00:21;98552.25;;;11.15;46.23
73103;BME280;61294;65.988;29.172;2023-05-10T07:02:47;98559.97;;;11.37;45.25
73103;BME280;61294;65.988;29.172;2023-05-10T07:05:13;98560.78;;;11.44;45.29
73103;BME280;61294;65.988;29.172;2023-05-10T07:07:39;98561.47;;;11.61;45.05
73103;BME280;61294;65.988;29.172;2023-05-10T07:10:05;98559.91;;;11.43;44.63
73103;BME280;61294;65.988;29.172;2023-05-10T07:12:32;98551.00;;;11.55;44.29
73103;BME280;61294;65.988;29.172;2023-05-10T07:14:58;98560.63;;;11.59;44.85
73103;BME280;61294;65.988;29.172;2023-05-10T07:17:24;98555.06;;;11.85;44.17
73103;BME280;61294;65.988;29.172;2023-05-10T07:19:49;98505.47;;;11.37;43.87
73103;BME280;61294;65.988;29.172;2023-05-10T07:22:15;98562.38;;;11.60;43.93
73103;BME280;61294;65.988;29.172;2023-05-10T07:24:42;98564.16;;;11.58;42.72
73103;BME280;61294;65.988;29.172;2023-05-10T07:27:08;98560.56;;;11.64;43.54
73103;BME280;61294;65.988;29.172;2023-05-10T07:29:34;98564.66;;;11.97;42.72
73103;BME280;61294;65.988;29.172;2023-05-10T07:32:00;98560.31;;;11.90;43.19
73103;BME280;61294;65.988;29.172;2023-05-10T07:34:26;98576.88;;;12.06;42.80
73103;BME280;61294;65.988;29.172;2023-05-10T07:36:53;98571.38;;;12.24;42.82
73103;BME280;61294;65.988;29.172;2023-05-10T07:39:18;98554.69;;;12.19;41.94
73103;BME280;61294;65.988;29.172;2023-05-10T07:41:46;98573.81;;;12.38;42.78
73103;BME280;61294;65.988;29.172;2023-05-10T07:44:11;98570.09;;;12.53;42.24
73103;BME280;61294;65.988;29.172;2023-05-10T07:46:37;98572.97;;;12.36;41.74
73103;BME280;61294;65.988;29.172;2023-05-10T07:49:03;98571.38;;;12.23;41.96
73103;BME280;61294;65.988;29.172;2023-05-10T07:51:29;98575.34;;;12.55;41.83
73103;BME280;61294;65.988;29.172;2023-05-10T07:53:55;98553.53;;;12.42;41.45
73103;BME280;61294;65.988;29.172;2023-05-10T07:56:27;98575.06;;;12.75;41.55
73103;BME280;61294;65.988;29.172;2023-05-10T07:58:55;98588.91;;;12.92;40.82
73103;BME280;61294;65.988;29.172;2023-05-10T08:01:22;98580.22;;;12.86;40.87
73103;BME280;61294;65.988;29.172;2023-05-10T08:03:48;98558.63;;;12.54;40.31
73103;BME280;61294;65.988;29.172;2023-05-10T08:06:17;98554.16;;;12.59;39.84
73103;BME280;61294;65.988;29.172;2023-05-10T08:08:43;98589.25;;;12.69;40.38
73103;BME280;61294;65.988;29.172;2023-05-10T08:11:17;98579.00;;;13.05;40.02
73103;BME280;61294;65.988;29.172;2023-05-10T08:13:43;98580.31;;;13.37;39.33
73103;BME280;61294;65.988;29.172;2023-05-10T08:16:09;98584.72;;;13.34;40.18
73103;BME280;61294;65.988;29.172;2023-05-10T08:18:35;98583.66;;;13.47;39.42
73103;BME280;61294;65.988;29.172;2023-05-10T08:21:00;98567.50;;;13.62;39.88
73103;BME280;61294;65.988;29.172;2023-05-10T08:23:26;98585.25;;;13.57;38.60
73103;BME280;61294;65.988;29.172;2023-05-10T08:25:52;98573.66;;;13.63;39.15
73103;BME280;61294;65.988;29.172;2023-05-10T08:28:18;98595.72;;;13.62;38.70
73103;BME280;61294;65.988;29.172;2023-05-10T08:30:43;98602.75;;;13.64;38.50
73103;BME280;61294;65.988;29.172;2023-05-10T08:33:09;98580.09;;;13.50;38.86
73103;BME280;61294;65.988;29.172;2023-05-10T08:35:35;98594.03;;;13.58;38.86
73103;BME280;61294;65.988;29.172;2023-05-10T08:38:01;98605.53;;;13.58;39.16
73103;BME280;61294;65.988;29.172;2023-05-10T08:40:26;98595.69;;;13.65;39.34
73103;BME280;61294;65.988;29.172;2023-05-10T08:42:59;98612.31;;;13.72;38.82
73103;BME280;61294;65.988;29.172;2023-05-10T08:45:32;98617.88;;;14.06;38.84
73103;BME280;61294;65.988;29.172;2023-05-10T08:48:01;98594.09;;;14.47;38.25
73103;BME280;61294;65.988;29.172;2023-05-10T08:50:27;98602.91;;;14.04;38.14
73103;BME280;61294;65.988;29.172;2023-05-10T08:52:55;98623.97;;;14.55;38.16
73103;BME280;61294;65.988;29.172;2023-05-10T08:55:23;98623.06;;;14.12;37.55
73103;BME280;61294;65.988;29.172;2023-05-10T08:57:50;98622.97;;;14.17;38.09
73103;BME280;61294;65.988;29.172;2023-05-10T09:00:17;98631.44;;;14.78;38.20
73103;BME280;61294;65.988;29.172;2023-05-10T09:02:43;98626.03;;;15.22;37.92
73103;BME280;61294;65.988;29.172;2023-05-10T09:05:11;98626.81;;;15.62;37.78
73103;BME280;61294;65.988;29.172;2023-05-10T09:07:37;98618.50;;;15.02;37.41
73103;BME280;61294;65.988;29.172;2023-05-10T09:10:04;98597.72;;;14.83;36.77
73103;BME280;61294;65.988;29.172;2023-05-10T09:12:30;98620.63;;;14.88;36.90
73103;BME280;61294;65.988;29.172;2023-05-10T09:14:57;98601.16;;;14.46;37.83
73103;BME280;61294;65.988;29.172;2023-05-10T09:17:25;98620.94;;;15.13;37.37
73103;BME280;61294;65.988;29.172;2023-05-10T09:19:59;98609.94;;;14.92;36.83
73103;BME280;61294;65.988;29.172;2023-05-10T09:22:26;98628.75;;;14.80;37.05
73103;BME280;61294;65.988;29.172;2023-05-10T09:27:35;98624.78;;;15.37;37.67
73103;BME280;61294;65.988;29.172;2023-05-10T09:30:01;98613.66;;;15.57;36.88
73103;BME280;61294;65.988;29.172;2023-05-10T09:32:41;98622.94;;;15.75;37.05
73103;BME280;61294;65.988;29.172;2023-05-10T09:35:12;98639.00;;;16.68;36.45
73103;BME280;61294;65.988;29.172;2023-05-10T09:37:43;98632.72;;;18.09;33.71
73103;BME280;61294;65.988;29.172;2023-05-10T09:40:19;98617.84;;;18.27;33.78
73103;BME280;61294;65.988;29.172;2023-05-10T09:43:03;98610.84;;;21.40;28.99
73103;BME280;61294;65.988;29.172;2023-05-10T09:45:31;98632.81;;;19.91;30.19
73103;BME280;61294;65.988;29.172;2023-05-10T09:47:57;98626.06;;;20.03;30.57
73103;BME280;61294;65.988;29.172;2023-05-10T09:50:24;98632.88;;;21.27;28.89
73103;BME280;61294;65.988;29.172;2023-05-10T09:52:56;98623.28;;;21.60;28.29
73103;BME280;61294;65.988;29.172;2023-05-10T09:55:45;98629.44;;;20.87;29.11
73103;BME280;61294;65.988;29.172;2023-05-10T09:58:13;98628.09;;;21.88;28.92
73103;BME280;61294;65.988;29.172;2023-05-10T10:00:41;98618.44;;;22.19;27.79
73103;BME280;61294;65.988;29.172;2023-05-10T10:03:13;98627.22;;;22.56;27.20
73103;BME280;61294;65.988;29.172;2023-05-10T10:05:41;98629.66;;;20.82;29.14
73103;BME280;61294;65.988;29.172;2023-05-10T10:08:10;98619.41;;;19.70;30.30
73103;BME280;61294;65.988;29.172;2023-05-10T10:10:37;98638.19;;;19.69;30.22
73103;BME280;61294;65.988;29.172;2023-05-10T10:13:05;98642.91;;;20.05;30.37
73103;BME280;61294;65.988;29.172;2023-05-10T10:15:33;98622.22;;;19.67;30.56
73103;BME280;61294;65.988;29.172;2023-05-10T10:17:59;98625.41;;;18.87;31.77
73103;BME280;61294;65.988;29.172;2023-05-10T10:20:26;98630.34;;;18.50;32.28
73103;BME280;61294;65.988;29.172;2023-05-10T10:22:52;98647.69;;;18.13;32.81
73103;BME280;61294;65.988;29.172;2023-05-10T10:25:20;98626.56;;;18.32;32.86
73103;BME280;61294;65.988;29.172;2023-05-10T10:30:42;98637.56;;;17.44;34.48
73103;BME280;61294;65.988;29.172;2023-05-10T10:36:01;98626.50;;;17.83;34.30
73103;BME280;61294;65.988;29.172;2023-05-10T10:41:28;98641.44;;;19.33;32.50
73103;BME280;61294;65.988;29.172;2023-05-10T10:52:28;98642.69;;;16.94;37.44
73103;BME280;61294;65.988;29.172;2023-05-10T10:55:14;98649.69;;;16.66;39.13
73103;BME280;61294;65.988;29.172;2023-05-10T10:57:51;98651.75;;;16.25;39.22
73103;BME280;61294;65.988;29.172;2023-05-10T11:00:28;98641.47;;;16.74;38.56
73103;BME280;61294;65.988;29.172;2023-05-10T11:05:39;98652.97;;;18.15;36.80
73103;BME280;61294;65.988;29.172;2023-05-10T11:08:12;98643.66;;;18.74;35.59
73103;BME280;61294;65.988;29.172;2023-05-10T11:10:48;98661.31;;;18.54;35.47
73103;BME280;61294;65.988;29.172;2023-05-10T11:13:14;98656.59;;;17.58;36.71
73103;BME280;61294;65.988;29.172;2023-05-10T11:15:40;98647.69;;;16.43;38.08
73103;BME280;61294;65.988;29.172;2023-05-10T11:18:23;98663.19;;;15.58;40.25
73103;BME280;61294;65.988;29.172;2023-05-10T11:23:21;98669.06;;;14.54;44.29
73103;BME280;61294;65.988;29.172;2023-05-10T11:25:48;98681.00;;;14.31;44.82
73103;BME280;61294;65.988;29.172;2023-05-10T11:28:14;98662.97;;;14.48;45.15
73103;BME280;61294;65.988;29.172;2023-05-10T11:30:43;98677.63;;;14.21;46.04
73103;BME280;61294;65.988;29.172;2023-05-10T11:33:15;98678.88;;;14.02;47.86
73103;BME280;61294;65.988;29.172;2023-05-10T11:35:41;98681.50;;;13.50;48.33
73103;BME280;61294;65.988;29.172;2023-05-10T11:38:08;98666.19;;;13.13;49.95
73103;BME280;61294;65.988;29.172;2023-05-10T11:40:35;98683.88;;;13.08;50.43
73103;BME280;61294;65.988;29.172;2023-05-10T11:43:02;98672.09;;;13.29;50.78
73103;BME280;61294;65.988;29.172;2023-05-10T11:45:29;98687.63;;;13.52;51.96
73103;BME280;61294;65.988;29.172;2023-05-10T11:47:58;98665.75;;;12.82;53.31
73103;BME280;61294;65.988;29.172;2023-05-10T11:50:24;98689.63;;;12.72;54.48
73103;BME280;61294;65.988;29.172;2023-05-10T11:52:56;98691.78;;;12.41;55.29
73103;BME280;61294;65.988;29.172;2023-05-10T11:55:22;98693.13;;;12.76;54.35
73103;BME280;61294;65.988;29.172;2023-05-10T11:57:54;98692.41;;;12.63;55.00
73103;BME280;61294;65.988;29.172;2023-05-10T12:00:20;98667.44;;;12.86;54.99
73103;BME280;61294;65.988;29.172;2023-05-10T12:02:47;98675.72;;;12.58;55.30
73103;BME280;61294;65.988;29.172;2023-05-10T12:05:13;98703.63;;;12.81;55.09
73103;BME280;61294;65.988;29.172;2023-05-10T12:07:39;98701.53;;;13.07;54.77
73103;BME280;61294;65.988;29.172;2023-05-10T12:10:07;98684.53;;;13.25;54.81
73103;BME280;61294;65.988;29.172;2023-05-10T12:12:44;98680.66;;;12.87;54.81
73103;BME280;61294;65.988;29.172;2023-05-10T12:15:22;98678.81;;;12.91;55.70
73103;BME280;61294;65.988;29.172;2023-05-10T12:17:50;98692.09;;;12.88;55.79
73103;BME280;61294;65.988;29.172;2023-05-10T12:20:20;98694.69;;;12.91;56.85
73103;BME280;61294;65.988;29.172;2023-05-10T12:22:52;98680.94;;;12.66;57.65
73103;BME280;61294;65.988;29.172;2023-05-10T12:25:19;98700.50;;;12.48;58.22
73103;BME280;61294;65.988;29.172;2023-05-10T12:27:54;98694.47;;;12.36;58.73
73103;BME280;61294;65.988;29.172;2023-05-10T12:30:24;98685.03;;;12.12;59.96
73103;BME280;61294;65.988;29.172;2023-05-10T12:32:51;98660.44;;;12.10;60.11
73103;BME280;61294;65.988;29.172;2023-05-10T12:35:17;98662.00;;;12.26;60.71
73103;BME280;61294;65.988;29.172;2023-05-10T12:37:51;98678.94;;;12.05;62.74
73103;BME280;61294;65.988;29.172;2023-05-10T12:40:16;98667.63;;;11.89;63.24
73103;BME280;61294;65.988;29.172;2023-05-10T12:42:42;98670.06;;;12.16;62.64
73103;BME280;61294;65.988;29.172;2023-05-10T12:45:10;98661.94;;;12.33;63.60
73103;BME280;61294;65.988;29.172;2023-05-10T12:47:37;98637.63;;;12.03;62.92
73103;BME280;61294;65.988;29.172;2023-05-10T12:50:03;98618.13;;;12.15;63.65
73103;BME280;61294;65.988;29.172;2023-05-10T12:52:30;98625.00;;;12.28;63.70
73103;BME280;61294;65.988;29.172;2023-05-10T12:54:58;98628.78;;;12.08;63.32
73103;BME280;61294;65.988;29.172;2023-05-10T12:57:24;98642.94;;;11.98;63.54
73103;BME280;61294;65.988;29.172;2023-05-10T12:59:50;98634.00;;;12.12;63.89
73103;BME280;61294;65.988;29.172;2023-05-10T13:02:16;98626.84;;;12.23;64.14
73103;BME280;61294;65.988;29.172;2023-05-10T13:04:45;98596.13;;;12.16;63.37
73103;BME280;61294;65.988;29.172;2023-05-10T13:07:11;98624.03;;;12.35;62.88
73103;BME280;61294;65.988;29.172;2023-05-10T13:09:37;98619.03;;;12.12;63.14
73103;BME280;61294;65.988;29.172;2023-05-10T13:12:03;98620.84;;;12.08;62.93
73103;BME280;61294;65.988;29.172;2023-05-10T13:14:29;98618.75;;;12.35;62.93
73103;BME280;61294;65.988;29.172;2023-05-10T13:16:55;98617.13;;;12.25;62.85
73103;BME280;61294;65.988;29.172;2023-05-10T13:19:21;98605.16;;;11.93;62.97
73103;BME280;61294;65.988;29.172;2023-05-10T13:21:47;98582.13;;;12.07;62.82
73103;BME280;61294;65.988;29.172;2023-05-10T13:24:13;98610.53;;;12.60;61.91
73103;BME280;61294;65.988;29.172;2023-05-10T13:26:40;98613.28;;;12.51;62.21
73103;BME280;61294;65.988;29.172;2023-05-10T13:29:06;98607.69;;;12.04;63.32
73103;BME280;61294;65.988;29.172;2023-05-10T13:31:32;98603.22;;;12.11;62.70
73103;BME280;61294;65.988;29.172;2023-05-10T13:33:57;98595.38;;;12.04;63.15
73103;BME280;61294;65.988;29.172;2023-05-10T13:36:23;98621.38;;;12.40;62.30
73103;BME280;61294;65.988;29.172;2023-05-10T13:38:49;98602.88;;;12.40;61.57
73103;BME280;61294;65.988;29.172;2023-05-10T13:41:15;98609.84;;;12.42;61.51
73103;BME280;61294;65.988;29.172;2023-05-10T13:43:41;98616.31;;;12.18;62.01
73103;BME280;61294;65.988;29.172;2023-05-10T13:46:06;98605.56;;;12.34;62.39
73103;BME280;61294;65.988;29.172;2023-05-10T13:48:32;98614.16;;;12.50;61.37
73103;BME280;61294;65.988;29.172;2023-05-10T13:50:58;98569.28;;;12.47;60.76
73103;BME280;61294;65.988;29.172;2023-05-10T13:53:24;98597.44;;;12.49;60.86
73103;BME280;61294;65.988;29.172;2023-05-10T13:55:50;98584.25;;;12.49;60.42
73103;BME280;61294;65.988;29.172;2023-05-10T13:58:16;98617.25;;;12.84;60.20
73103;BME280;61294;65.988;29.172;2023-05-10T14:00:42;98619.97;;;12.76;60.10
73103;BME280;61294;65.988;29.172;2023-05-10T14:03:08;98587.59;;;12.60;60.28
73103;BME280;61294;65.988;29.172;2023-05-10T14:05:36;98590.28;;;12.59;59.96
73103;BME280;61294;65.988;29.172;2023-05-10T14:08:02;98610.09;;;12.89;58.97
73103;BME280;61294;65.988;29.172;2023-05-10T14:10:28;98613.38;;;13.07;59.31
73103;BME280;61294;65.988;29.172;2023-05-10T14:12:54;98614.06;;;13.20;58.76
73103;BME280;61294;65.988;29.172;2023-05-10T14:15:19;98609.78;;;13.11;58.34
73103;BME280;61294;65.988;29.172;2023-05-10T14:17:45;98581.69;;;13.02;57.68
73103;BME280;61294;65.988;29.172;2023-05-10T14:20:11;98624.69;;;13.15;57.99
73103;BME280;61294;65.988;29.172;2023-05-10T14:22:37;98608.69;;;13.24;57.62
73103;BME280;61294;65.988;29.172;2023-05-10T14:25:04;98590.34;;;13.13;58.03
73103;BME280;61294;65.988;29.172;2023-05-10T14:27:30;98592.91;;;13.20;57.93
73103;BME280;61294;65.988;29.172;2023-05-10T14:29:56;98600.13;;;13.10;57.74
73103;BME280;61294;65.988;29.172;2023-05-10T14:32:22;98617.72;;;13.12;58.25
73103;BME280;61294;65.988;29.172;2023-05-10T14:34:48;98621.53;;;12.91;58.47
73103;BME280;61294;65.988;29.172;2023-05-10T14:37:14;98613.91;;;12.68;58.48
73103;BME280;61294;65.988;29.172;2023-05-10T14:39:40;98593.91;;;12.50;58.85
73103;BME280;61294;65.988;29.172;2023-05-10T14:42:07;98623.03;;;12.47;59.21
73103;BME280;61294;65.988;29.172;2023-05-10T14:44:34;98596.88;;;12.27;59.52
73103;BME280;61294;65.988;29.172;2023-05-10T14:47:00;98618.78;;;12.32;59.48
73103;BME280;61294;65.988;29.172;2023-05-10T14:49:26;98610.72;;;12.45;59.68
73103;BME280;61294;65.988;29.172;2023-05-10T14:51:52;98611.38;;;12.62;59.64
73103;BME280;61294;65.988;29.172;2023-05-10T14:54:18;98571.94;;;12.47;59.25
73103;BME280;61294;65.988;29.172;2023-05-10T14:56:44;98586.94;;;12.45;59.79
73103;BME280;61294;65.988;29.172;2023-05-10T14:59:10;98609.75;;;12.52;59.54
73103;BME280;61294;65.988;29.172;2023-05-10T15:01:36;98579.06;;;12.41;59.47
73103;BME280;61294;65.988;29.172;2023-05-10T15:04:06;98575.78;;;12.22;58.82
73103;BME280;61294;65.988;29.172;2023-05-10T15:06:33;98558.44;;;12.03;59.70
73103;BME280;61294;65.988;29.172;2023-05-10T15:08:59;98572.13;;;12.34;59.59
73103;BME280;61294;65.988;29.172;2023-05-10T15:11:25;98608.84;;;12.54;59.25
73103;BME280;61294;65.988;29.172;2023-05-10T15:13:51;98579.56;;;12.03;59.77
73103;BME280;61294;65.988;29.172;2023-05-10T15:16:17;98602.03;;;12.35;59.32
73103;BME280;61294;65.988;29.172;2023-05-10T15:18:43;98596.84;;;12.29;59.33
73103;BME280;61294;65.988;29.172;2023-05-10T15:21:09;98574.97;;;12.17;59.90
73103;BME280;61294;65.988;29.172;2023-05-10T15:23:35;98572.34;;;12.17;59.87
73103;BME280;61294;65.988;29.172;2023-05-10T15:26:01;98597.91;;;12.12;59.61
73103;BME280;61294;65.988;29.172;2023-05-10T15:28:28;98595.41;;;12.03;59.52
73103;BME280;61294;65.988;29.172;2023-05-10T15:30:55;98590.97;;;12.03;59.26
73103;BME280;61294;65.988;29.172;2023-05-10T15:33:21;98590.16;;;11.97;59.32
73103;BME280;61294;65.988;29.172;2023-05-10T15:35:47;98593.72;;;11.94;59.86
73103;BME280;61294;65.988;29.172;2023-05-10T15:38:13;98560.59;;;11.62;60.26
73103;BME280;61294;65.988;29.172;2023-05-10T15:40:39;98580.75;;;11.69;59.81
73103;BME280;61294;65.988;29.172;2023-05-10T15:43:05;98584.50;;;11.45;59.68
73103;BME280;61294;65.988;29.172;2023-05-10T15:45:31;98559.91;;;11.45;60.37
73103;BME280;61294;65.988;29.172;2023-05-10T15:47:58;98577.41;;;11.52;60.25
73103;BME280;61294;65.988;29.172;2023-05-10T15:50:24;98577.59;;;11.32;60.33
73103;BME280;61294;65.988;29.172;2023-05-10T15:52:50;98550.53;;;11.11;60.91